sensor_id;sensor_type;location;lat;lon;timestamp;temperature;humidity
19862;DHT22;10093;48.148;8.542;2022-12-07T00:00:25;1.30;99.90
19862;DHT22;10093;48.148;8.542;2022-12-07T00:02:51;1.30;99.90
19862;DHT22;10093;48.148;8.542;2022-12-07T00:05:16;1.20;99.90
19862;DHT22;10093;48.148;8.542;2022-12-07T00:07:42;1.30;99.90
19862;DHT22;10093;48.148;8.542;2022-12-07T00:10:08;1.50;99.90
19862;DHT22;10093;48.148;8.542;2022-12-07T00:12:33;1.40;99.90
19862;DHT22;10093;48.148;8.542;2022-12-07T00:14:59;1.50;99.90
19862;DHT22;10093;48.148;8.542;2022-12-07T00:17:24;1.50;99.90
19862;DHT22;10093;48.148;8.542;2022-12-07T00:19:50;1.50;99.90
19862;DHT22;10093;48.148;8.542;2022-12-07T00:22:15;1.40;99.90
19862;DHT22;10093;48.148;8.542;2022-12-07T00:24:41;1.50;99.90
19862;DHT22;10093;48.148;8.542;2022-12-07T00:27:07;1.40;99.90
19862;DHT22;10093;48.148;8.542;2022-12-07T00:29:32;1.50;99.90
19862;DHT22;10093;48.148;8.542;2022-12-07T00:31:58;1.50;99.90
19862;DHT22;10093;48.148;8.542;2022-12-07T00:34:23;1.60;99.90
19862;DHT22;10093;48.148;8.542;2022-12-07T00:36:49;1.60;99.90
19862;DHT22;10093;48.148;8.542;2022-12-07T00:39:15;1.60;99.90
19862;DHT22;10093;48.148;8.542;2022-12-07T00:41:41;1.70;99.90
19862;DHT22;10093;48.148;8.542;2022-12-07T00:44:07;1.60;99.90
19862;DHT22;10093;48.148;8.542;2022-12-07T00:46:33;1.50;99.90
19862;DHT22;10093;48.148;8.542;2022-12-07T00:48:58;1.40;99.90
19862;DHT22;10093;48.148;8.542;2022-12-07T00:51:25;1.40;99.90
19862;DHT22;10093;48.148;8.542;2022-12-07T00:53:51;1.30;99.90
19862;DHT22;10093;48.148;8.542;2022-12-07T00:56:26;1.30;99.90
19862;DHT22;10093;48.148;8.542;2022-12-07T00:58:53;1.30;99.90
19862;DHT22;10093;48.148;8.542;2022-12-07T01:01:21;1.30;99.90
19862;DHT22;10093;48.148;8.542;2022-12-07T01:03:46;1.30;99.90
19862;DHT22;10093;48.148;8.542;2022-12-07T01:06:15;1.30;99.90
19862;DHT22;10093;48.148;8.542;2022-12-07T01:08:41;1.30;99.90
19862;DHT22;10093;48.148;8.542;2022-12-07T01:11:09;1.30;99.90
19862;DHT22;10093;48.148;8.542;2022-12-07T01:13:35;1.40;99.90
19862;DHT22;10093;48.148;8.542;2022-12-07T01:16:03;1.60;99.90
19862;DHT22;10093;48.148;8.542;2022-12-07T01:18:30;1.70;99.90
19862;DHT22;10093;48.148;8.542;2022-12-07T01:21:17;1.60;99.90
19862;DHT22;10093;48.148;8.542;2022-12-07T01:23:43;1.50;99.90
19862;DHT22;10093;48.148;8.542;2022-12-07T01:26:17;1.40;99.90
19862;DHT22;10093;48.148;8.542;2022-12-07T01:28:43;1.30;99.90
19862;DHT22;10093;48.148;8.542;2022-12-07T01:31:14;1.30;99.90
19862;DHT22;10093;48.148;8.542;2022-12-07T01:33:43;1.30;99.90
19862;DHT22;10093;48.148;8.542;2022-12-07T01:38:38;1.70;99.90
19862;DHT22;10093;48.148;8.542;2022-12-07T01:41:04;1.80;99.90
19862;DHT22;10093;48.148;8.542;2022-12-07T01:43:31;1.80;99.90
19862;DHT22;10093;48.148;8.542;2022-12-07T01:45:57;1.70;99.90
19862;DHT22;10093;48.148;8.542;2022-12-07T01:48:28;1.60;99.90
19862;DHT22;10093;48.148;8.542;2022-12-07T01:50:56;1.70;99.90
19862;DHT22;10093;48.148;8.542;2022-12-07T01:53:27;1.70;99.90
19862;DHT22;10093;48.148;8.542;2022-12-07T01:55:54;1.60;99.90
19862;DHT22;10093;48.148;8.542;2022-12-07T01:58:20;1.60;99.90
19862;DHT22;10093;48.148;8.542;2022-12-07T02:00:46;1.50;99.90
19862;DHT22;10093;48.148;8.542;2022-12-07T02:03:17;1.80;99.90
19862;DHT22;10093;48.148;8.542;2022-12-07T02:05:45;1.80;99.90
19862;DHT22;10093;48.148;8.542;2022-12-07T02:08:12;2.10;99.90
19862;DHT22;10093;48.148;8.542;2022-12-07T02:10:38;2.10;99.90
19862;DHT22;10093;48.148;8.542;2022-12-07T02:13:15;2.20;99.90
19862;DHT22;10093;48.148;8.542;2022-12-07T02:21:15;2.10;99.90
19862;DHT22;10093;48.148;8.542;2022-12-07T02:24:28;2.10;99.90
19862;DHT22;10093;48.148;8.542;2022-12-07T02:32:29;2.10;99.90
19862;DHT22;10093;48.148;8.542;2022-12-07T02:35:13;2.20;99.90
19862;DHT22;10093;48.148;8.542;2022-12-07T02:38:03;2.00;99.90
19862;DHT22;10093;48.148;8.542;2022-12-07T02:40:38;2.10;99.90
19862;DHT22;10093;48.148;8.542;2022-12-07T02:43:13;1.90;99.90
19862;DHT22;10093;48.148;8.542;2022-12-07T02:45:41;1.80;99.90
19862;DHT22;10093;48.148;8.542;2022-12-07T02:48:10;2.00;99.90
19862;DHT22;10093;48.148;8.542;2022-12-07T02:50:37;2.00;99.90
19862;DHT22;10093;48.148;8.542;2022-12-07T02:53:03;2.00;99.90
19862;DHT22;10093;48.148;8.542;2022-12-07T02:55:37;1.80;99.90
19862;DHT22;10093;48.148;8.542;2022-12-07T03:03:59;1.90;99.90
19862;DHT22;10093;48.148;8.542;2022-12-07T03:06:31;1.90;99.90
19862;DHT22;10093;48.148;8.542;2022-12-07T03:09:09;1.70;99.90
19862;DHT22;10093;48.148;8.542;2022-12-07T03:12:08;1.90;99.90
19862;DHT22;10093;48.148;8.542;2022-12-07T03:14:40;1.80;99.90
19862;DHT22;10093;48.148;8.542;2022-12-07T03:17:18;1.70;99.90
19862;DHT22;10093;48.148;8.542;2022-12-07T03:19:46;1.70;99.90
19862;DHT22;10093;48.148;8.542;2022-12-07T03:22:14;1.70;99.90
19862;DHT22;10093;48.148;8.542;2022-12-07T03:24:44;1.70;99.90
19862;DHT22;10093;48.148;8.542;2022-12-07T03:27:21;1.70;99.90
19862;DHT22;10093;48.148;8.542;2022-12-07T03:35:20;1.80;99.90
19862;DHT22;10093;48.148;8.542;2022-12-07T03:37:56;1.80;99.90
19862;DHT22;10093;48.148;8.542;2022-12-07T03:40:43;1.70;99.90
19862;DHT22;10093;48.148;8.542;2022-12-07T03:43:10;1.40;99.90
19862;DHT22;10093;48.148;8.542;2022-12-07T03:45:44;1.30;99.90
19862;DHT22;10093;48.148;8.542;2022-12-07T03:48:35;1.30;99.90
19862;DHT22;10093;48.148;8.542;2022-12-07T03:53:52;1.50;99.90
19862;DHT22;10093;48.148;8.542;2022-12-07T03:56:20;1.60;99.90
19862;DHT22;10093;48.148;8.542;2022-12-07T03:58:47;1.60;99.90
19862;DHT22;10093;48.148;8.542;2022-12-07T04:01:13;1.60;99.90
19862;DHT22;10093;48.148;8.542;2022-12-07T04:03:39;1.80;99.90
19862;DHT22;10093;48.148;8.542;2022-12-07T04:06:05;1.80;99.90
19862;DHT22;10093;48.148;8.542;2022-12-07T04:08:31;1.80;99.90
19862;DHT22;10093;48.148;8.542;2022-12-07T04:10:56;1.80;99.90
19862;DHT22;10093;48.148;8.542;2022-12-07T04:13:22;1.80;99.90
19862;DHT22;10093;48.148;8.542;2022-12-07T04:15:48;1.80;99.90
19862;DHT22;10093;48.148;8.542;2022-12-07T04:18:13;1.70;99.90
19862;DHT22;10093;48.148;8.542;2022-12-07T04:20:39;1.80;99.90
19862;DHT22;10093;48.148;8.542;2022-12-07T04:23:04;1.70;99.90
19862;DHT22;10093;48.148;8.542;2022-12-07T04:25:30;1.70;99.90
19862;DHT22;10093;48.148;8.542;2022-12-07T04:27:55;1.50;99.90
19862;DHT22;10093;48.148;8.542;2022-12-07T04:30:21;1.40;99.90
19862;DHT22;10093;48.148;8.542;2022-12-07T04:32:47;1.40;99.90
19862;DHT22;10093;48.148;8.542;2022-12-07T04:35:12;1.50;99.90
19862;DHT22;10093;48.148;8.542;2022-12-07T04:37:38;1.60;99.90
19862;DHT22;10093;48.148;8.542;2022-12-07T04:40:07;1.60;99.90
19862;DHT22;10093;48.148;8.542;2022-12-07T04:42:37;1.40;99.90
19862;DHT22;10093;48.148;8.542;2022-12-07T04:45:03;1.50;99.90
19862;DHT22;10093;48.148;8.542;2022-12-07T04:47:28;1.50;99.90
19862;DHT22;10093;48.148;8.542;2022-12-07T04:49:54;1.30;99.90
19862;DHT22;10093;48.148;8.542;2022-12-07T04:52:19;1.20;99.90
19862;DHT22;10093;48.148;8.542;2022-12-07T04:54:45;1.10;99.90
19862;DHT22;10093;48.148;8.542;2022-12-07T04:57:11;1.30;99.90
19862;DHT22;10093;48.148;8.542;2022-12-07T04:59:36;1.20;99.90
19862;DHT22;10093;48.148;8.542;2022-12-07T05:02:02;1.10;99.90
19862;DHT22;10093;48.148;8.542;2022-12-07T05:04:27;1.10;99.90
19862;DHT22;10093;48.148;8.542;2022-12-07T05:06:53;1.10;99.90
19862;DHT22;10093;48.148;8.542;2022-12-07T05:09:19;1.00;99.90
19862;DHT22;10093;48.148;8.542;2022-12-07T05:11:44;0.90;99.90
19862;DHT22;10093;48.148;8.542;2022-12-07T05:16:38;0.70;99.90
19862;DHT22;10093;48.148;8.542;2022-12-07T05:19:04;0.70;99.90
19862;DHT22;10093;48.148;8.542;2022-12-07T05:21:30;0.60;99.90
19862;DHT22;10093;48.148;8.542;2022-12-07T05:23:56;0.60;99.90
19862;DHT22;10093;48.148;8.542;2022-12-07T05:26:21;0.60;99.90
19862;DHT22;10093;48.148;8.542;2022-12-07T05:28:51;0.60;99.90
19862;DHT22;10093;48.148;8.542;2022-12-07T05:31:17;0.50;99.90
19862;DHT22;10093;48.148;8.542;2022-12-07T05:33:42;0.50;99.90
19862;DHT22;10093;48.148;8.542;2022-12-07T05:36:08;0.50;99.90
19862;DHT22;10093;48.148;8.542;2022-12-07T05:38:39;0.50;99.90
19862;DHT22;10093;48.148;8.542;2022-12-07T05:41:06;0.50;99.90
19862;DHT22;10093;48.148;8.542;2022-12-07T05:43:32;0.50;99.90
19862;DHT22;10093;48.148;8.542;2022-12-07T05:45:58;0.50;99.90
19862;DHT22;10093;48.148;8.542;2022-12-07T05:48:24;0.50;99.90
19862;DHT22;10093;48.148;8.542;2022-12-07T05:50:51;0.40;99.90
19862;DHT22;10093;48.148;8.542;2022-12-07T05:53:17;0.40;99.90
19862;DHT22;10093;48.148;8.542;2022-12-07T05:55:43;0.30;99.90
19862;DHT22;10093;48.148;8.542;2022-12-07T05:58:09;0.30;99.90
19862;DHT22;10093;48.148;8.542;2022-12-07T06:00:55;0.20;99.90
19862;DHT22;10093;48.148;8.542;2022-12-07T06:03:21;0.20;99.90
19862;DHT22;10093;48.148;8.542;2022-12-07T06:05:47;0.20;99.90
19862;DHT22;10093;48.148;8.542;2022-12-07T06:08:12;0.10;99.90
19862;DHT22;10093;48.148;8.542;2022-12-07T06:10:40;0.10;99.90
19862;DHT22;10093;48.148;8.542;2022-12-07T06:13:05;0.10;99.90
19862;DHT22;10093;48.148;8.542;2022-12-07T06:15:31;0.10;99.90
19862;DHT22;10093;48.148;8.542;2022-12-07T06:17:56;0.10;99.90
19862;DHT22;10093;48.148;8.542;2022-12-07T06:20:22;0.10;99.90
19862;DHT22;10093;48.148;8.542;2022-12-07T06:22:47;0.10;99.90
19862;DHT22;10093;48.148;8.542;2022-12-07T06:25:13;0.00;99.90
19862;DHT22;10093;48.148;8.542;2022-12-07T06:27:39;-0.10;99.90
19862;DHT22;10093;48.148;8.542;2022-12-07T06:30:05;-0.20;99.90
19862;DHT22;10093;48.148;8.542;2022-12-07T06:32:33;-0.40;99.90
19862;DHT22;10093;48.148;8.542;2022-12-07T06:34:59;-0.50;99.90
19862;DHT22;10093;48.148;8.542;2022-12-07T06:37:25;-0.60;99.90
19862;DHT22;10093;48.148;8.542;2022-12-07T06:39:50;-0.70;99.90
19862;DHT22;10093;48.148;8.542;2022-12-07T06:42:16;-0.90;99.90
19862;DHT22;10093;48.148;8.542;2022-12-07T06:44:42;-1.00;99.90
19862;DHT22;10093;48.148;8.542;2022-12-07T06:47:07;-1.10;99.90
19862;DHT22;10093;48.148;8.542;2022-12-07T06:49:34;-1.20;99.90
19862;DHT22;10093;48.148;8.542;2022-12-07T06:52:03;-1.30;99.90
19862;DHT22;10093;48.148;8.542;2022-12-07T06:54:30;-1.50;99.90
19862;DHT22;10093;48.148;8.542;2022-12-07T06:56:55;-1.60;99.90
19862;DHT22;10093;48.148;8.542;2022-12-07T06:59:21;-1.70;99.90
19862;DHT22;10093;48.148;8.542;2022-12-07T07:01:47;-1.20;99.90
19862;DHT22;10093;48.148;8.542;2022-12-07T07:04:12;-1.00;99.90
19862;DHT22;10093;48.148;8.542;2022-12-07T07:06:38;-1.00;99.90
19862;DHT22;10093;48.148;8.542;2022-12-07T07:09:04;-1.10;99.90
19862;DHT22;10093;48.148;8.542;2022-12-07T07:11:29;-1.20;99.90
19862;DHT22;10093;48.148;8.542;2022-12-07T07:13:55;-1.30;99.90
19862;DHT22;10093;48.148;8.542;2022-12-07T07:16:23;-1.30;99.90
19862;DHT22;10093;48.148;8.542;2022-12-07T07:18:49;-1.20;99.90
19862;DHT22;10093;48.148;8.542;2022-12-07T07:21:15;-0.90;99.90
19862;DHT22;10093;48.148;8.542;2022-12-07T07:23:41;-0.80;99.90
19862;DHT22;10093;48.148;8.542;2022-12-07T07:26:06;-0.60;99.90
19862;DHT22;10093;48.148;8.542;2022-12-07T07:28:32;-0.60;99.90
19862;DHT22;10093;48.148;8.542;2022-12-07T07:30:57;-0.60;99.90
19862;DHT22;10093;48.148;8.542;2022-12-07T07:33:23;-0.50;99.90
19862;DHT22;10093;48.148;8.542;2022-12-07T07:35:48;-0.40;99.90
19862;DHT22;10093;48.148;8.542;2022-12-07T07:38:14;-0.30;99.90
19862;DHT22;10093;48.148;8.542;2022-12-07T07:40:40;-0.20;99.90
19862;DHT22;10093;48.148;8.542;2022-12-07T07:43:05;-0.30;99.90
19862;DHT22;10093;48.148;8.542;2022-12-07T07:45:31;-0.50;99.90
19862;DHT22;10093;48.148;8.542;2022-12-07T07:47:56;-0.60;99.90
19862;DHT22;10093;48.148;8.542;2022-12-07T07:50:22;-0.70;99.90
19862;DHT22;10093;48.148;8.542;2022-12-07T07:52:48;-0.70;99.90
19862;DHT22;10093;48.148;8.542;2022-12-07T07:55:14;-0.60;99.90
19862;DHT22;10093;48.148;8.542;2022-12-07T07:57:40;-0.20;99.90
19862;DHT22;10093;48.148;8.542;2022-12-07T08:00:09;0.00;99.90
19862;DHT22;10093;48.148;8.542;2022-12-07T08:02:35;0.00;99.90
19862;DHT22;10093;48.148;8.542;2022-12-07T08:05:01;0.20;99.90
19862;DHT22;10093;48.148;8.542;2022-12-07T08:07:27;0.60;99.90
19862;DHT22;10093;48.148;8.542;2022-12-07T08:09:53;0.80;99.90
19862;DHT22;10093;48.148;8.542;2022-12-07T08:12:18;1.10;99.90
19862;DHT22;10093;48.148;8.542;2022-12-07T08:14:44;1.50;99.90
19862;DHT22;10093;48.148;8.542;2022-12-07T08:17:09;2.10;99.90
19862;DHT22;10093;48.148;8.542;2022-12-07T08:19:35;2.60;99.90
19862;DHT22;10093;48.148;8.542;2022-12-07T08:22:01;2.80;99.90
19862;DHT22;10093;48.148;8.542;2022-12-07T08:24:27;2.70;99.90
19862;DHT22;10093;48.148;8.542;2022-12-07T08:26:52;3.50;99.90
19862;DHT22;10093;48.148;8.542;2022-12-07T08:29:18;3.10;99.90
19862;DHT22;10093;48.148;8.542;2022-12-07T08:31:43;3.50;99.90
19862;DHT22;10093;48.148;8.542;2022-12-07T08:34:13;4.00;99.90
19862;DHT22;10093;48.148;8.542;2022-12-07T08:36:39;5.30;99.90
19862;DHT22;10093;48.148;8.542;2022-12-07T08:39:05;5.00;99.90
19862;DHT22;10093;48.148;8.542;2022-12-07T08:41:31;6.30;99.90
19862;DHT22;10093;48.148;8.542;2022-12-07T08:43:57;8.60;99.90
19862;DHT22;10093;48.148;8.542;2022-12-07T08:46:38;10.00;99.90
19862;DHT22;10093;48.148;8.542;2022-12-07T08:49:16;10.50;99.90
19862;DHT22;10093;48.148;8.542;2022-12-07T08:51:43;11.00;99.90
19862;DHT22;10093;48.148;8.542;2022-12-07T08:54:12;12.50;99.90
19862;DHT22;10093;48.148;8.542;2022-12-07T08:56:39;13.60;99.90
19862;DHT22;10093;48.148;8.542;2022-12-07T08:59:06;14.40;99.90
19862;DHT22;10093;48.148;8.542;2022-12-07T09:01:32;14.00;99.90
19862;DHT22;10093;48.148;8.542;2022-12-07T09:03:59;13.50;99.90
19862;DHT22;10093;48.148;8.542;2022-12-07T09:06:25;13.30;99.90
19862;DHT22;10093;48.148;8.542;2022-12-07T09:08:54;12.30;99.90
19862;DHT22;10093;48.148;8.542;2022-12-07T09:11:20;12.40;99.90
19862;DHT22;10093;48.148;8.542;2022-12-07T09:13:46;13.10;99.90
19862;DHT22;10093;48.148;8.542;2022-12-07T09:16:11;13.10;99.90
19862;DHT22;10093;48.148;8.542;2022-12-07T09:18:37;13.20;99.90
19862;DHT22;10093;48.148;8.542;2022-12-07T09:21:04;13.50;99.90
19862;DHT22;10093;48.148;8.542;2022-12-07T09:23:29;13.20;99.90
19862;DHT22;10093;48.148;8.542;2022-12-07T09:25:58;12.40;99.90
19862;DHT22;10093;48.148;8.542;2022-12-07T09:28:24;11.30;99.90
19862;DHT22;10093;48.148;8.542;2022-12-07T09:30:49;10.70;99.90
19862;DHT22;10093;48.148;8.542;2022-12-07T09:33:15;10.80;99.90
19862;DHT22;10093;48.148;8.542;2022-12-07T09:35:48;10.60;99.90
19862;DHT22;10093;48.148;8.542;2022-12-07T09:38:14;11.00;99.90
19862;DHT22;10093;48.148;8.542;2022-12-07T09:40:41;11.60;99.90
19862;DHT22;10093;48.148;8.542;2022-12-07T09:43:35;12.50;99.90
19862;DHT22;10093;48.148;8.542;2022-12-07T09:46:01;13.10;99.90
19862;DHT22;10093;48.148;8.542;2022-12-07T09:48:33;12.50;99.90
19862;DHT22;10093;48.148;8.542;2022-12-07T09:51:01;13.90;99.90
19862;DHT22;10093;48.148;8.542;2022-12-07T09:53:30;14.40;99.90
19862;DHT22;10093;48.148;8.542;2022-12-07T09:55:59;13.50;99.90
19862;DHT22;10093;48.148;8.542;2022-12-07T09:58:26;13.20;99.90
19862;DHT22;10093;48.148;8.542;2022-12-07T10:00:59;13.20;99.90
19862;DHT22;10093;48.148;8.542;2022-12-07T10:03:27;13.30;99.90
19862;DHT22;10093;48.148;8.542;2022-12-07T10:05:54;13.90;99.90
19862;DHT22;10093;48.148;8.542;2022-12-07T10:08:20;14.10;99.90
19862;DHT22;10093;48.148;8.542;2022-12-07T10:10:50;13.30;99.90
19862;DHT22;10093;48.148;8.542;2022-12-07T10:13:21;12.90;99.90
19862;DHT22;10093;48.148;8.542;2022-12-07T10:18:41;13.00;99.90
19862;DHT22;10093;48.148;8.542;2022-12-07T10:21:15;12.70;99.90
19862;DHT22;10093;48.148;8.542;2022-12-07T10:29:31;12.40;99.90
19862;DHT22;10093;48.148;8.542;2022-12-07T10:31:58;12.50;99.90
19862;DHT22;10093;48.148;8.542;2022-12-07T10:34:29;13.10;99.90
19862;DHT22;10093;48.148;8.542;2022-12-07T10:44:41;14.30;99.90
19862;DHT22;10093;48.148;8.542;2022-12-07T10:50:17;14.80;99.90
19862;DHT22;10093;48.148;8.542;2022-12-07T11:07:17;12.80;99.90
19862;DHT22;10093;48.148;8.542;2022-12-07T11:12:51;11.80;99.90
19862;DHT22;10093;48.148;8.542;2022-12-07T11:16:46;12.80;99.90
19862;DHT22;10093;48.148;8.542;2022-12-07T11:21:39;13.40;99.90
19862;DHT22;10093;48.148;8.542;2022-12-07T11:24:15;13.00;99.90
19862;DHT22;10093;48.148;8.542;2022-12-07T11:37:30;13.10;99.90
19862;DHT22;10093;48.148;8.542;2022-12-07T11:40:02;11.50;99.90
19862;DHT22;10093;48.148;8.542;2022-12-07T11:42:36;11.40;99.90
19862;DHT22;10093;48.148;8.542;2022-12-07T11:45:17;11.10;99.90
19862;DHT22;10093;48.148;8.542;2022-12-07T11:47:56;11.60;99.90
19862;DHT22;10093;48.148;8.542;2022-12-07T11:53:03;13.70;99.90
19862;DHT22;10093;48.148;8.542;2022-12-07T12:01:01;14.30;99.90
19862;DHT22;10093;48.148;8.542;2022-12-07T12:03:35;14.40;99.90
19862;DHT22;10093;48.148;8.542;2022-12-07T12:06:03;13.80;99.90
19862;DHT22;10093;48.148;8.542;2022-12-07T12:08:39;14.20;99.90
19862;DHT22;10093;48.148;8.542;2022-12-07T12:17:24;14.00;99.90
19862;DHT22;10093;48.148;8.542;2022-12-07T12:23:00;12.40;99.90
19862;DHT22;10093;48.148;8.542;2022-12-07T12:25:40;12.60;99.90
19862;DHT22;10093;48.148;8.542;2022-12-07T12:28:23;13.30;99.90
19862;DHT22;10093;48.148;8.542;2022-12-07T12:33:58;12.90;99.90
19862;DHT22;10093;48.148;8.542;2022-12-07T12:51:45;15.70;99.90
19862;DHT22;10093;48.148;8.542;2022-12-07T12:56:43;14.60;99.90
19862;DHT22;10093;48.148;8.542;2022-12-07T12:59:24;15.00;99.90
19862;DHT22;10093;48.148;8.542;2022-12-07T13:01:53;13.90;99.90
19862;DHT22;10093;48.148;8.542;2022-12-07T13:12:56;11.00;99.90
19862;DHT22;10093;48.148;8.542;2022-12-07T13:15:35;10.40;99.90
19862;DHT22;10093;48.148;8.542;2022-12-07T13:20:48;8.00;99.90
19862;DHT22;10093;48.148;8.542;2022-12-07T13:23:19;6.80;99.90
19862;DHT22;10093;48.148;8.542;2022-12-07T13:28:39;7.30;99.90
19862;DHT22;10093;48.148;8.542;2022-12-07T13:31:18;8.10;99.90
19862;DHT22;10093;48.148;8.542;2022-12-07T13:33:46;8.00;99.90
19862;DHT22;10093;48.148;8.542;2022-12-07T13:36:27;7.30;99.90
19862;DHT22;10093;48.148;8.542;2022-12-07T13:38:59;6.50;99.90
19862;DHT22;10093;48.148;8.542;2022-12-07T13:41:29;6.00;99.90
19862;DHT22;10093;48.148;8.542;2022-12-07T13:49:23;8.50;99.90
19862;DHT22;10093;48.148;8.542;2022-12-07T13:51:50;8.50;99.90
19862;DHT22;10093;48.148;8.542;2022-12-07T13:54:16;8.30;99.90
19862;DHT22;10093;48.148;8.542;2022-12-07T13:56:42;7.90;99.90
19862;DHT22;10093;48.148;8.542;2022-12-07T13:59:23;8.90;99.90
19862;DHT22;10093;48.148;8.542;2022-12-07T14:01:50;8.70;99.90
19862;DHT22;10093;48.148;8.542;2022-12-07T14:04:18;9.00;99.90
19862;DHT22;10093;48.148;8.542;2022-12-07T14:06:51;9.60;99.90
19862;DHT22;10093;48.148;8.542;2022-12-07T14:09:22;9.40;99.90
19862;DHT22;10093;48.148;8.542;2022-12-07T14:11:50;9.10;99.90
19862;DHT22;10093;48.148;8.542;2022-12-07T14:14:21;7.90;99.90
19862;DHT22;10093;48.148;8.542;2022-12-07T14:17:01;7.60;99.90
19862;DHT22;10093;48.148;8.542;2022-12-07T14:19:57;7.30;99.90
19862;DHT22;10093;48.148;8.542;2022-12-07T14:25:00;5.90;99.90
19862;DHT22;10093;48.148;8.542;2022-12-07T14:27:33;5.50;99.90
19862;DHT22;10093;48.148;8.542;2022-12-07T14:30:01;5.70;99.90
19862;DHT22;10093;48.148;8.542;2022-12-07T14:32:28;5.50;99.90
19862;DHT22;10093;48.148;8.542;2022-12-07T14:34:55;5.30;99.90
19862;DHT22;10093;48.148;8.542;2022-12-07T14:37:21;5.00;99.90
19862;DHT22;10093;48.148;8.542;2022-12-07T14:39:46;4.50;99.90
19862;DHT22;10093;48.148;8.542;2022-12-07T14:42:12;4.30;99.90
19862;DHT22;10093;48.148;8.542;2022-12-07T14:44:38;3.90;99.90
19862;DHT22;10093;48.148;8.542;2022-12-07T14:47:03;4.20;99.90
19862;DHT22;10093;48.148;8.542;2022-12-07T14:49:29;4.20;99.90
19862;DHT22;10093;48.148;8.542;2022-12-07T14:51:54;4.10;99.90
19862;DHT22;10093;48.148;8.542;2022-12-07T14:54:20;4.00;99.90
19862;DHT22;10093;48.148;8.542;2022-12-07T14:56:47;4.80;99.90
19862;DHT22;10093;48.148;8.542;2022-12-07T14:59:17;4.80;99.90
19862;DHT22;10093;48.148;8.542;2022-12-07T15:01:43;5.50;99.90
19862;DHT22;10093;48.148;8.542;2022-12-07T15:04:08;6.20;99.90
19862;DHT22;10093;48.148;8.542;2022-12-07T15:06:34;5.70;99.90
19862;DHT22;10093;48.148;8.542;2022-12-07T15:09:00;5.30;99.90
19862;DHT22;10093;48.148;8.542;2022-12-07T15:11:25;5.40;99.90
19862;DHT22;10093;48.148;8.542;2022-12-07T15:13:51;4.70;99.90
19862;DHT22;10093;48.148;8.542;2022-12-07T15:16:37;4.40;99.90
19862;DHT22;10093;48.148;8.542;2022-12-07T15:19:05;3.90;99.90
19862;DHT22;10093;48.148;8.542;2022-12-07T15:21:31;3.60;99.90
19862;DHT22;10093;48.148;8.542;2022-12-07T15:23:56;3.30;99.90
19862;DHT22;10093;48.148;8.542;2022-12-07T15:26:22;3.40;99.90
19862;DHT22;10093;48.148;8.542;2022-12-07T15:28:48;3.30;99.90
19862;DHT22;10093;48.148;8.542;2022-12-07T15:31:15;3.30;99.90
19862;DHT22;10093;48.148;8.542;2022-12-07T15:33:41;3.20;99.90
19862;DHT22;10093;48.148;8.542;2022-12-07T15:36:07;3.10;99.90
19862;DHT22;10093;48.148;8.542;2022-12-07T15:38:33;3.20;99.90
19862;DHT22;10093;48.148;8.542;2022-12-07T15:40:59;3.00;99.90
19862;DHT22;10093;48.148;8.542;2022-12-07T15:43:24;3.00;99.90
19862;DHT22;10093;48.148;8.542;2022-12-07T15:46:08;3.00;99.90
19862;DHT22;10093;48.148;8.542;2022-12-07T15:48:34;3.00;99.90
19862;DHT22;10093;48.148;8.542;2022-12-07T15:51:08;2.80;99.90
19862;DHT22;10093;48.148;8.542;2022-12-07T15:53:35;2.80;99.90
19862;DHT22;10093;48.148;8.542;2022-12-07T15:56:01;2.80;99.90
19862;DHT22;10093;48.148;8.542;2022-12-07T15:58:31;2.70;99.90
19862;DHT22;10093;48.148;8.542;2022-12-07T16:00:59;2.60;99.90
19862;DHT22;10093;48.148;8.542;2022-12-07T16:03:28;2.50;99.90
19862;DHT22;10093;48.148;8.542;2022-12-07T16:05:53;2.40;99.90
19862;DHT22;10093;48.148;8.542;2022-12-07T16:08:19;2.30;99.90
19862;DHT22;10093;48.148;8.542;2022-12-07T16:10:45;2.30;99.90
19862;DHT22;10093;48.148;8.542;2022-12-07T16:13:14;2.30;99.90
19862;DHT22;10093;48.148;8.542;2022-12-07T16:15:41;2.20;99.90
19862;DHT22;10093;48.148;8.542;2022-12-07T16:18:06;2.10;99.90
19862;DHT22;10093;48.148;8.542;2022-12-07T16:20:35;2.10;99.90
19862;DHT22;10093;48.148;8.542;2022-12-07T16:23:01;2.00;99.90
19862;DHT22;10093;48.148;8.542;2022-12-07T16:25:27;1.90;99.90
19862;DHT22;10093;48.148;8.542;2022-12-07T16:27:53;1.80;99.90
19862;DHT22;10093;48.148;8.542;2022-12-07T16:30:19;1.70;99.90
19862;DHT22;10093;48.148;8.542;2022-12-07T16:32:44;1.60;99.90
19862;DHT22;10093;48.148;8.542;2022-12-07T16:35:11;1.60;99.90
19862;DHT22;10093;48.148;8.542;2022-12-07T16:37:37;1.50;99.90
19862;DHT22;10093;48.148;8.542;2022-12-07T16:40:02;1.40;99.90
19862;DHT22;10093;48.148;8.542;2022-12-07T16:42:33;1.40;99.90
19862;DHT22;10093;48.148;8.542;2022-12-07T16:44:59;1.30;99.90
19862;DHT22;10093;48.148;8.542;2022-12-07T16:47:24;1.20;99.90
19862;DHT22;10093;48.148;8.542;2022-12-07T16:49:50;1.10;99.90
19862;DHT22;10093;48.148;8.542;2022-12-07T16:52:17;1.00;99.90
19862;DHT22;10093;48.148;8.542;2022-12-07T16:54:43;0.90;99.90
19862;DHT22;10093;48.148;8.542;2022-12-07T16:57:09;0.80;99.90
19862;DHT22;10093;48.148;8.542;2022-12-07T16:59:35;0.60;99.90
19862;DHT22;10093;48.148;8.542;2022-12-07T17:02:01;0.50;99.90
19862;DHT22;10093;48.148;8.542;2022-12-07T17:04:27;0.50;99.90
19862;DHT22;10093;48.148;8.542;2022-12-07T17:06:53;0.30;99.90
19862;DHT22;10093;48.148;8.542;2022-12-07T17:09:19;0.20;99.90
19862;DHT22;10093;48.148;8.542;2022-12-07T17:11:45;0.10;99.90
19862;DHT22;10093;48.148;8.542;2022-12-07T17:14:11;-0.10;99.90
19862;DHT22;10093;48.148;8.542;2022-12-07T17:16:55;-0.30;99.90
19862;DHT22;10093;48.148;8.542;2022-12-07T17:19:20;-0.40;99.90
19862;DHT22;10093;48.148;8.542;2022-12-07T17:21:47;-0.50;99.90
19862;DHT22;10093;48.148;8.542;2022-12-07T17:24:14;-0.70;99.90
19862;DHT22;10093;48.148;8.542;2022-12-07T17:26:42;-0.80;99.90
19862;DHT22;10093;48.148;8.542;2022-12-07T17:29:10;-0.90;99.90
19862;DHT22;10093;48.148;8.542;2022-12-07T17:31:36;-1.00;99.90
19862;DHT22;10093;48.148;8.542;2022-12-07T17:34:02;-1.00;99.90
19862;DHT22;10093;48.148;8.542;2022-12-07T17:36:30;-1.00;99.90
19862;DHT22;10093;48.148;8.542;2022-12-07T17:38:56;-1.10;99.90
19862;DHT22;10093;48.148;8.542;2022-12-07T17:41:25;-1.10;99.90
19862;DHT22;10093;48.148;8.542;2022-12-07T17:44:12;-1.10;99.90
19862;DHT22;10093;48.148;8.542;2022-12-07T17:46:39;-1.10;99.90
19862;DHT22;10093;48.148;8.542;2022-12-07T17:49:05;-1.20;99.90
19862;DHT22;10093;48.148;8.542;2022-12-07T17:51:31;-1.10;99.90
19862;DHT22;10093;48.148;8.542;2022-12-07T17:54:16;-1.20;99.90
19862;DHT22;10093;48.148;8.542;2022-12-07T17:56:42;-1.20;99.90
19862;DHT22;10093;48.148;8.542;2022-12-07T17:59:08;-1.30;99.90
19862;DHT22;10093;48.148;8.542;2022-12-07T18:01:34;-1.40;99.90
19862;DHT22;10093;48.148;8.542;2022-12-07T18:04:00;-1.50;99.90
19862;DHT22;10093;48.148;8.542;2022-12-07T18:06:25;-1.60;99.90
19862;DHT22;10093;48.148;8.542;2022-12-07T18:08:51;-1.70;99.90